Time;durP1;ratioP1;P1;durP2;ratioP2;P2;SDS_P1;SDS_P2;PMS_P1;PMS_P2;Temp;Humidity;BMP_temperature;BMP_pressure;BME280_temperature;BME280_humidity;BME280_pressure;Samples;Min_cycle;Max_cycle;Signal;HPM_P1;HPM_P2
2023/01/27 00:00:16;;;;;;;;;;;;;;;;;;6237612;22;19919;-88
2023/01/27 00:02:42;;;;;;;;;;;;;;;;;;6269713;22;19990;-88
2023/01/27 00:05:08;;;;;;;;;;;;;;;;;;6262136;22;19968;-88
2023/01/27 00:07:34;;;;;;;;;;;;;;;;;;6262287;22;19922;-89
2023/01/27 00:10:00;;;;;;;;;;;;;;;;;;6235765;22;19946;-88
2023/01/27 00:15:10;;;;;;;;;;;;;;;;;;6262215;22;19923;-87
2023/01/27 00:17:39;;;;;;;;;;;;;;;;;;6263561;22;20324;-88
2023/01/27 00:20:09;;;;;;;;;;;;;;;;;;6235199;22;19919;-86
2023/01/27 00:25:19;;;;;;;;;;;;;;;;;;6260807;22;19964;-87
2023/01/27 00:27:45;;;;;;;;;;;;;;;;;;6238546;22;19919;-88
2023/01/27 00:30:11;;;;;;;;;;;;;;;;;;6233342;22;19950;-87
2023/01/27 00:35:22;;;;;;;;;;;;;;;;;;6260874;22;20000;-87
2023/01/27 00:37:48;;;;;;;;;;;;;;;;;;6229225;22;19994;-87
2023/01/27 00:40:14;;;;;;;;;;;;;;;;;;6231193;22;20315;-88
2023/01/27 00:42:40;;;;;;;;;;;;;;;;;;6207683;22;19919;-88
2023/01/27 00:47:51;;;;;;;;;;;;;;;;;;6231572;22;20391;-88
2023/01/27 00:50:17;;;;;;;;;;;;;;;;;;6227871;22;20295;-88
2023/01/27 00:52:43;;;;;;;;;;;;;;;;;;6230482;22;19930;-88
2023/01/27 00:55:14;;;;;;;;;;;;;;;;;;6206060;22;20375;-88
2023/01/27 00:57:40;;;;;;;;;;;;;;;;;;6208992;22;19942;-88
2023/01/27 01:00:08;;;;;;;;;;;;;;;;;;6230291;22;19920;-87
2023/01/27 01:02:34;;;;;;;;;;;;;;;;;;6229238;22;19951;-87
2023/01/27 01:05:00;;;;;;;;;;;;;;;;;;6232934;22;19962;-87
2023/01/27 01:07:26;;;;;;;;;;;;;;;;;;6232140;22;20369;-87
2023/01/27 01:09:52;;;;;;;;;;;;;;;;;;6231587;22;19927;-87
2023/01/27 01:12:18;;;;;;;;;;;;;;;;;;6229020;22;20340;-87
2023/01/27 01:14:44;;;;;;;;;;;;;;;;;;6205997;22;20421;-87
2023/01/27 01:17:10;;;;;;;;;;;;;;;;;;6230665;22;19953;-87
2023/01/27 01:19:36;;;;;;;;;;;;;;;;;;6228689;22;19919;-87
2023/01/27 01:22:01;;;;;;;;;;;;;;;;;;6205073;22;19966;-88
2023/01/27 01:24:27;;;;;;;;;;;;;;;;;;6226369;22;19920;-87
2023/01/27 01:26:53;;;;;;;;;;;;;;;;;;6232928;22;19922;-88
2023/01/27 01:29:19;;;;;;;;;;;;;;;;;;6227331;22;19920;-88
2023/01/27 01:31:45;;;;;;;;;;;;;;;;;;6207954;22;19923;-88
2023/01/27 01:34:11;;;;;;;;;;;;;;;;;;6233246;22;19915;-88
2023/01/27 01:36:37;;;;;;;;;;;;;;;;;;6217063;22;20418;-88
2023/01/27 01:39:03;;;;;;;;;;;;;;;;;;6266508;22;20336;-88
2023/01/27 01:41:29;;;;;;;;;;;;;;;;;;6233911;22;19923;-88
2023/01/27 01:43:55;;;;;;;;;;;;;;;;;;6261854;22;19933;-88
2023/01/27 01:46:21;;;;;;;;;;;;;;;;;;6260250;22;20347;-88
2023/01/27 01:48:47;;;;;;;;;;;;;;;;;;6264067;22;19968;-88
2023/01/27 01:51:13;;;;;;;;;;;;;;;;;;6260398;22;19923;-88
2023/01/27 01:53:39;;;;;;;;;;;;;;;;;;6260298;22;19919;-88
2023/01/27 01:56:05;;;;;;;;;;;;;;;;;;6288804;22;20403;-88
2023/01/27 01:58:33;;;;;;;;;;;;;;;;;;6260549;22;19953;-88
2023/01/27 02:00:59;;;;;;;;;;;;;;;;;;6235751;22;20316;-87
2023/01/27 02:03:25;;;;;;;;;;;;;;;;;;6230966;22;19925;-87
2023/01/27 02:05:51;;;;;;;;;;;;;;;;;;6263184;22;19918;-87
2023/01/27 02:08:17;;;;;;;;;;;;;;;;;;6232209;22;20270;-88
2023/01/27 02:10:43;;;;;;;;;;;;;;;;;;6265139;22;19927;-87
2023/01/27 02:13:09;;;;;;;;;;;;;;;;;;6231765;22;20336;-87
2023/01/27 02:15:35;;;;;;;;;;;;;;;;;;6237002;22;20377;-87
2023/01/27 02:18:01;;;;;;;;;;;;;;;;;;6234846;22;20295;-87
2023/01/27 02:20:27;;;;;;;;;;;;;;;;;;6254223;22;19919;-87
2023/01/27 02:22:53;;;;;;;;;;;;;;;;;;6235381;22;19926;-87
2023/01/27 02:25:19;;;;;;;;;;;;;;;;;;6227387;22;19934;-87
2023/01/27 02:27:45;;;;;;;;;;;;;;;;;;6259181;22;19950;-88
2023/01/27 02:30:11;;;;;;;;;;;;;;;;;;6256553;22;19919;-87
2023/01/27 02:32:37;;;;;;;;;;;;;;;;;;6234433;22;19919;-87
2023/01/27 02:35:03;;;;;;;;;;;;;;;;;;6235838;22;19919;-87
2023/01/27 02:37:29;;;;;;;;;;;;;;;;;;6231310;22;19943;-87
2023/01/27 02:39:55;;;;;;;;;;;;;;;;;;6260239;22;19923;-86
2023/01/27 02:42:21;;;;;;;;;;;;;;;;;;6238978;22;19916;-87
2023/01/27 02:44:47;;;;;;;;;;;;;;;;;;6235074;22;19919;-86
2023/01/27 02:47:13;;;;;;;;;;;;;;;;;;6261485;22;20556;-87
2023/01/27 02:49:39;;;;;;;;;;;;;;;;;;6236753;22;19963;-87
2023/01/27 02:52:05;;;;;;;;;;;;;;;;;;6261889;22;20248;-87
2023/01/27 02:54:31;;;;;;;;;;;;;;;;;;6230524;22;19919;-87
2023/01/27 02:56:57;;;;;;;;;;;;;;;;;;6258954;22;19967;-87
2023/01/27 02:59:23;;;;;;;;;;;;;;;;;;6231861;22;19919;-87
2023/01/27 03:01:49;;;;;;;;;;;;;;;;;;6234549;22;19991;-87
2023/01/27 03:04:15;;;;;;;;;;;;;;;;;;6258305;22;19965;-87
2023/01/27 03:06:41;;;;;;;;;;;;;;;;;;6262437;22;19919;-87
2023/01/27 03:09:07;;;;;;;;;;;;;;;;;;6260541;22;19919;-87
2023/01/27 03:14:17;;;;;;;;;;;;;;;;;;6263451;22;20104;-87
2023/01/27 03:19:28;;;;;;;;;;;;;;;;;;6258642;22;20297;-87
2023/01/27 03:21:55;;;;;;;;;;;;;;;;;;6261549;22;20172;-87
2023/01/27 03:24:21;;;;;;;;;;;;;;;;;;6235231;22;19993;-87
2023/01/27 03:26:47;;;;;;;;;;;;;;;;;;6264802;22;20342;-87
2023/01/27 03:31:57;;;;;;;;;;;;;;;;;;6263603;22;19923;-86
2023/01/27 03:34:23;;;;;;;;;;;;;;;;;;6237407;22;19918;-87
2023/01/27 03:47:48;;;;;;;;;;;;;;;;;;6260476;22;19969;-87
2023/01/27 03:50:18;;;;;;;;;;;;;;;;;;6231148;22;19962;-87
2023/01/27 03:53:01;;;;;;;;;;;;;;;;;;6235854;22;20107;-87
2023/01/27 03:55:27;;;;;;;;;;;;;;;;;;6261138;22;20311;-87
2023/01/27 03:57:55;;;;;;;;;;;;;;;;;;6236982;22;19940;-87
2023/01/27 04:00:21;;;;;;;;;;;;;;;;;;6259977;22;19915;-87
2023/01/27 04:08:16;;;;;;;;;;;;;;;;;;6260727;22;20254;-87
2023/01/27 04:11:53;;;;;;;;;;;;;;;;;;6263854;22;20270;-86
2023/01/27 04:13:28;;;;;;;;;;;;;;;;;;6257142;22;19973;-87
2023/01/27 04:15:54;;;;;;;;;;;;;;;;;;6238408;22;20339;-87
2023/01/27 04:18:20;;;;;;;;;;;;;;;;;;6259530;22;19937;-87
2023/01/27 04:20:46;;;;;;;;;;;;;;;;;;6238936;22;19919;-87
2023/01/27 04:23:12;;;;;;;;;;;;;;;;;;6259565;22;20325;-87
2023/01/27 04:25:38;;;;;;;;;;;;;;;;;;6263039;22;19918;-87
2023/01/27 04:28:04;;;;;;;;;;;;;;;;;;6261366;22;20332;-87
2023/01/27 04:30:30;;;;;;;;;;;;;;;;;;6236722;22;19937;-87
2023/01/27 04:32:56;;;;;;;;;;;;;;;;;;6235934;22;19923;-88
2023/01/27 04:35:22;;;;;;;;;;;;;;;;;;6236514;22;19969;-87
2023/01/27 04:37:48;;;;;;;;;;;;;;;;;;6244484;22;19923;-87
2023/01/27 04:40:14;;;;;;;;;;;;;;;;;;6258749;22;19925;-86
2023/01/27 04:42:40;;;;;;;;;;;;;;;;;;6265753;22;19919;-86
2023/01/27 04:45:06;;;;;;;;;;;;;;;;;;6268414;22;19972;-89
2023/01/27 04:47:32;;;;;;;;;;;;;;;;;;6243190;22;19980;-87
2023/01/27 04:49:58;;;;;;;;;;;;;;;;;;6242581;22;19922;-87
2023/01/27 04:52:24;;;;;;;;;;;;;;;;;;6237187;22;20366;-87
2023/01/27 04:54:50;;;;;;;;;;;;;;;;;;6239214;22;19942;-87
2023/01/27 04:57:16;;;;;;;;;;;;;;;;;;6235032;22;20406;-87
2023/01/27 04:59:42;;;;;;;;;;;;;;;;;;6262068;22;20763;-87
2023/01/27 05:02:08;;;;;;;;;;;;;;;;;;6260276;22;20327;-87
2023/01/27 05:04:33;;;;;;;;;;;;;;;;;;6238274;22;20202;-88
2023/01/27 05:06:59;;;;;;;;;;;;;;;;;;6264985;22;19919;-87
2023/01/27 05:09:25;;;;;;;;;;;;;;;;;;6235751;22;19919;-87
2023/01/27 05:11:51;;;;;;;;;;;;;;;;;;6240207;22;19923;-88
2023/01/27 05:14:18;;;;;;;;;;;;;;;;;;6262030;22;19919;-87
2023/01/27 05:16:44;;;;;;;;;;;;;;;;;;6267147;22;19930;-88
2023/01/27 05:19:10;;;;;;;;;;;;;;;;;;6268346;22;19918;-87
2023/01/27 05:21:36;;;;;;;;;;;;;;;;;;6266524;22;19954;-88
2023/01/27 05:24:02;;;;;;;;;;;;;;;;;;6240764;22;20386;-88
2023/01/27 05:26:28;;;;;;;;;;;;;;;;;;6265627;22;20233;-87
2023/01/27 05:28:54;;;;;;;;;;;;;;;;;;6242109;22;19923;-88
2023/01/27 05:31:20;;;;;;;;;;;;;;;;;;6264498;22;20236;-87
2023/01/27 05:33:46;;;;;;;;;;;;;;;;;;6266705;22;20319;-88
2023/01/27 05:36:12;;;;;;;;;;;;;;;;;;6241159;22;19950;-88
2023/01/27 05:38:38;;;;;;;;;;;;;;;;;;6243787;22;19976;-87
2023/01/27 05:41:04;;;;;;;;;;;;;;;;;;6267229;22;19966;-87
2023/01/27 05:43:30;;;;;;;;;;;;;;;;;;6238613;22;19985;-87
2023/01/27 05:45:56;;;;;;;;;;;;;;;;;;6240364;22;19919;-87
2023/01/27 05:48:22;;;;;;;;;;;;;;;;;;6238501;22;19926;-88
2023/01/27 05:50:48;;;;;;;;;;;;;;;;;;6229179;22;19998;-87
2023/01/27 05:53:14;;;;;;;;;;;;;;;;;;6239078;22;19961;-87
2023/01/27 05:55:40;;;;;;;;;;;;;;;;;;6241565;22;19931;-88
2023/01/27 05:58:09;;;;;;;;;;;;;;;;;;6235272;22;19919;-88
2023/01/27 06:00:35;;;;;;;;;;;;;;;;;;6260886;22;20422;-88
2023/01/27 06:03:01;;;;;;;;;;;;;;;;;;6261819;22;19945;-88
2023/01/27 06:05:27;;;;;;;;;;;;;;;;;;6261227;22;20062;-87
2023/01/27 06:07:53;;;;;;;;;;;;;;;;;;6262157;22;19925;-87
2023/01/27 06:10:19;;;;;;;;;;;;;;;;;;6236137;22;20365;-87
2023/01/27 06:12:45;;;;;;;;;;;;;;;;;;6266260;22;19961;-89
2023/01/27 06:15:10;;;;;;;;;;;;;;;;;;6261452;22;19918;-88
2023/01/27 06:17:36;;;;;;;;;;;;;;;;;;6235443;22;19950;-86
2023/01/27 06:20:02;;;;;;;;;;;;;;;;;;6236079;22;19915;-87
2023/01/27 06:22:28;;;;;;;;;;;;;;;;;;6263819;22;19994;-88
2023/01/27 06:24:54;;;;;;;;;;;;;;;;;;6234818;22;19923;-88
2023/01/27 06:27:20;;;;;;;;;;;;;;;;;;6261834;22;19918;-88
2023/01/27 06:29:46;;;;;;;;;;;;;;;;;;6265989;22;19919;-88
2023/01/27 06:32:12;;;;;;;;;;;;;;;;;;6239216;22;19929;-87
2023/01/27 06:34:38;;;;;;;;;;;;;;;;;;6235837;22;19997;-88
2023/01/27 06:37:04;;;;;;;;;;;;;;;;;;6235101;22;19954;-88
2023/01/27 06:39:30;;;;;;;;;;;;;;;;;;6259354;22;20331;-88
2023/01/27 06:41:56;;;;;;;;;;;;;;;;;;6234220;22;19915;-87
2023/01/27 06:44:22;;;;;;;;;;;;;;;;;;6257079;22;19919;-88
2023/01/27 06:46:48;;;;;;;;;;;;;;;;;;6246986;22;19926;-87
2023/01/27 06:49:14;;;;;;;;;;;;;;;;;;6258822;22;19923;-88
2023/01/27 06:51:40;;;;;;;;;;;;;;;;;;6255261;22;19930;-88
2023/01/27 06:54:06;;;;;;;;;;;;;;;;;;6255479;22;20243;-88
2023/01/27 06:56:32;;;;;;;;;;;;;;;;;;6259956;22;19919;-88
2023/01/27 06:58:58;;;;;;;;;;;;;;;;;;6231858;22;19919;-88
2023/01/27 07:01:24;;;;;;;;;;;;;;;;;;6260897;22;20220;-88
2023/01/27 07:03:50;;;;;;;;;;;;;;;;;;6234936;22;19923;-89
2023/01/27 07:06:17;;;;;;;;;;;;;;;;;;6226735;22;19915;-89
2023/01/27 07:11:56;;;;;;;;;;;;;;;;;;6302754;22;19926;-88
2023/01/27 07:17:48;;;;;;;;;;;;;;;;;;6276506;22;19931;-89
2023/01/27 07:20:26;;;;;;;;;;;;;;;;;;;;;
2023/01/27 07:26:03;;;;;;;;;;;;;;;;;;6269523;22;19915;-86
2023/01/27 07:31:44;;;;;;;;;;;;;;;;;;6119991;23;19921;-90
2023/01/27 07:34:30;;;;;;;;;;;;;;;;;;6084154;23;20000;-88
2023/01/27 07:37:25;;;;;;;;;;;;;;;;;;6187241;23;19930;-87
2023/01/27 07:40:27;;;;;;;;;;;;;;;;;;6163032;23;19924;-88
2023/01/27 07:45:59;;;;;;;;;;;;;;;;;;6126198;23;19927;-88
2023/01/27 07:54:44;;;;;;;;;;;;;;;;;;6176212;23;20356;-88
2023/01/27 07:57:10;;;;;;;;;;;;;;;;;;6140733;23;19920;-88
2023/01/27 07:59:36;;;;;;;;;;;;;;;;;;6188832;22;19977;-88
2023/01/27 08:02:02;;;;;;;;;;;;;;;;;;6237068;22;19922;-88
2023/01/27 08:04:28;;;;;;;;;;;;;;;;;;6208516;22;20018;-88
2023/01/27 08:06:54;;;;;;;;;;;;;;;;;;6233036;22;19957;-88
2023/01/27 08:09:20;;;;;;;;;;;;;;;;;;6260837;22;19919;-87
2023/01/27 08:11:46;;;;;;;;;;;;;;;;;;6211493;22;19955;-89
2023/01/27 08:14:12;;;;;;;;;;;;;;;;;;6208652;22;20290;-88
2023/01/27 08:16:37;;;;;;;;;;;;;;;;;;6209354;22;19946;-88
2023/01/27 08:19:03;;;;;;;;;;;;;;;;;;6231189;22;19919;-88
2023/01/27 08:21:31;;;;;;;;;;;;;;;;;;6233178;22;19989;-87
2023/01/27 08:23:57;;;;;;;;;;;;;;;;;;6235333;22;19926;-88
2023/01/27 08:26:23;;;;;;;;;;;;;;;;;;6227313;22;20332;-88
2023/01/27 08:28:49;;;;;;;;;;;;;;;;;;6233475;22;20343;-87
2023/01/27 08:31:15;;;;;;;;;;;;;;;;;;6207458;22;20401;-88
2023/01/27 08:33:41;;;;;;;;;;;;;;;;;;6207130;22;19919;-88
2023/01/27 08:36:07;;;;;;;;;;;;;;;;;;6207184;22;20284;-88
2023/01/27 08:38:33;;;;;;;;;;;;;;;;;;6233848;22;19963;-88
2023/01/27 08:40:59;;;;;;;;;;;;;;;;;;6209621;22;19923;-88
2023/01/27 08:43:25;;;;;;;;;;;;;;;;;;6225592;22;19954;-88
2023/01/27 08:45:51;;;;;;;;;;;;;;;;;;6265149;22;19976;-88
2023/01/27 08:48:17;;;;;;;;;;;;;;;;;;6237910;22;19915;-88
2023/01/27 08:50:43;;;;;;;;;;;;;;;;;;6241650;22;19923;-89
2023/01/27 08:53:12;;;;;;;;;;;;;;;;;;6234460;22;20359;-88
2023/01/27 08:55:38;;;;;;;;;;;;;;;;;;6262430;22;20249;-89
2023/01/27 08:58:04;;;;;;;;;;;;;;;;;;6242264;22;19954;-88
2023/01/27 09:00:30;;;;;;;;;;;;;;;;;;6240864;22;19915;-87
2023/01/27 09:02:56;;;;;;;;;;;;;;;;;;6268396;22;20343;-88
2023/01/27 09:05:22;;;;;;;;;;;;;;;;;;6263682;22;19997;-88
2023/01/27 09:07:48;;;;;;;;;;;;;;;;;;6231683;22;19915;-87
2023/01/27 09:10:14;;;;;;;;;;;;;;;;;;6236753;22;19926;-89
2023/01/27 09:12:40;;;;;;;;;;;;;;;;;;6245754;22;19914;-89
2023/01/27 09:15:06;;;;;;;;;;;;;;;;;;6267620;22;20350;-89
2023/01/27 09:17:32;;;;;;;;;;;;;;;;;;6244154;22;19923;-88
2023/01/27 09:19:58;;;;;;;;;;;;;;;;;;6238136;22;20406;-87
2023/01/27 09:22:24;;;;;;;;;;;;;;;;;;6263212;22;19929;-88
2023/01/27 09:24:50;;;;;;;;;;;;;;;;;;6265318;22;20064;-87
2023/01/27 09:27:16;;;;;;;;;;;;;;;;;;6267280;22;19915;-88
2023/01/27 09:29:42;;;;;;;;;;;;;;;;;;6244457;22;19981;-87
2023/01/27 09:32:11;;;;;;;;;;;;;;;;;;6240625;22;19923;-87
2023/01/27 09:34:37;;;;;;;;;;;;;;;;;;6243213;22;19925;-88
2023/01/27 09:37:03;;;;;;;;;;;;;;;;;;6269116;22;19918;-87
2023/01/27 09:39:29;;;;;;;;;;;;;;;;;;6267103;22;20353;-87
2023/01/27 09:41:55;;;;;;;;;;;;;;;;;;6270825;22;19923;-88
2023/01/27 09:44:21;;;;;;;;;;;;;;;;;;6240141;22;20301;-88
2023/01/27 09:46:46;;;;;;;;;;;;;;;;;;6243549;22;20243;-88
2023/01/27 09:49:14;;;;;;;;;;;;;;;;;;6240518;22;19922;-88
2023/01/27 09:51:40;;;;;;;;;;;;;;;;;;6247269;22;20029;-87
2023/01/27 09:54:06;;;;;;;;;;;;;;;;;;6246486;22;19958;-88
2023/01/27 09:56:32;;;;;;;;;;;;;;;;;;6271814;22;20310;-87
2023/01/27 09:58:58;;;;;;;;;;;;;;;;;;6270093;22;19926;-88
2023/01/27 10:01:24;;;;;;;;;;;;;;;;;;6270153;22;19988;-88
2023/01/27 10:03:49;;;;;;;;;;;;;;;;;;6272162;22;19994;-87
2023/01/27 10:06:19;;;;;;;;;;;;;;;;;;6270112;22;19915;-88
2023/01/27 10:08:45;;;;;;;;;;;;;;;;;;6272465;22;20328;-87
2023/01/27 10:11:10;;;;;;;;;;;;;;;;;;6244842;22;19997;-88
2023/01/27 10:13:36;;;;;;;;;;;;;;;;;;6272463;22;19923;-88
2023/01/27 10:16:03;;;;;;;;;;;;;;;;;;6245642;22;19964;-88
2023/01/27 10:18:29;;;;;;;;;;;;;;;;;;6243296;22;19919;-88
2023/01/27 10:20:59;;;;;;;;;;;;;;;;;;6272708;22;20055;-88
2023/01/27 10:23:25;;;;;;;;;;;;;;;;;;6268700;22;20349;-88
2023/01/27 10:25:51;;;;;;;;;;;;;;;;;;6271768;22;19921;-88
2023/01/27 10:28:17;;;;;;;;;;;;;;;;;;6242591;22;20319;-88
2023/01/27 10:30:43;;;;;;;;;;;;;;;;;;6247041;22;19925;-88
2023/01/27 10:33:09;;;;;;;;;;;;;;;;;;6243493;22;19918;-88
2023/01/27 10:35:35;;;;;;;;;;;;;;;;;;6246071;22;19925;-87
2023/01/27 10:38:03;;;;;;;;;;;;;;;;;;6271478;22;20130;-87
2023/01/27 10:40:29;;;;;;;;;;;;;;;;;;6270430;22;19919;-88
2023/01/27 10:42:55;;;;;;;;;;;;;;;;;;6271140;22;19965;-88
2023/01/27 10:45:21;;;;;;;;;;;;;;;;;;6269370;22;19919;-88
2023/01/27 10:47:47;;;;;;;;;;;;;;;;;;6246620;22;20247;-88
2023/01/27 10:50:13;;;;;;;;;;;;;;;;;;6269929;22;19922;-88
2023/01/27 10:52:39;;;;;;;;;;;;;;;;;;6244252;22;19919;-88
2023/01/27 10:55:08;;;;;;;;;;;;;;;;;;6271183;22;19925;-88
2023/01/27 10:57:34;;;;;;;;;;;;;;;;;;6246430;22;19946;-88
2023/01/27 11:00:00;;;;;;;;;;;;;;;;;;6271854;22;20328;-88
2023/01/27 11:02:26;;;;;;;;;;;;;;;;;;6242172;22;20418;-88
2023/01/27 11:04:52;;;;;;;;;;;;;;;;;;6242271;22;19921;-88
2023/01/27 11:07:18;;;;;;;;;;;;;;;;;;6240056;22;19926;-90
2023/01/27 11:09:44;;;;;;;;;;;;;;;;;;6243149;22;19957;-88
2023/01/27 11:12:10;;;;;;;;;;;;;;;;;;6240822;22;19923;-88
2023/01/27 11:14:37;;;;;;;;;;;;;;;;;;6270794;22;19993;-88
2023/01/27 11:17:05;;;;;;;;;;;;;;;;;;6269522;22;19982;-88
2023/01/27 11:19:32;;;;;;;;;;;;;;;;;;6240988;22;19915;-88
2023/01/27 11:21:59;;;;;;;;;;;;;;;;;;6244207;22;19946;-88
2023/01/27 11:24:25;;;;;;;;;;;;;;;;;;6239384;22;19925;-88
2023/01/27 11:26:52;;;;;;;;;;;;;;;;;;6271309;22;19915;-88
2023/01/27 11:29:18;;;;;;;;;;;;;;;;;;6269006;22;19919;-88
2023/01/27 11:31:44;;;;;;;;;;;;;;;;;;6271686;22;19930;-88
2023/01/27 11:34:10;;;;;;;;;;;;;;;;;;6269627;22;19957;-88
2023/01/27 11:36:36;;;;;;;;;;;;;;;;;;6245669;22;19922;-88
2023/01/27 11:39:05;;;;;;;;;;;;;;;;;;6244935;22;19926;-88
2023/01/27 11:41:31;;;;;;;;;;;;;;;;;;6267986;22;19919;-89
2023/01/27 11:43:56;;;;;;;;;;;;;;;;;;6245289;22;19918;-88
2023/01/27 11:46:22;;;;;;;;;;;;;;;;;;6244037;22;19993;-88
2023/01/27 11:48:48;;;;;;;;;;;;;;;;;;6246082;22;19964;-88
2023/01/27 11:51:14;;;;;;;;;;;;;;;;;;6241537;22;20330;-88
2023/01/27 11:53:40;;;;;;;;;;;;;;;;;;6269599;22;19919;-88
2023/01/27 11:56:06;;;;;;;;;;;;;;;;;;6243455;22;19983;-89
2023/01/27 11:58:32;;;;;;;;;;;;;;;;;;6268903;22;19922;-88
2023/01/27 12:00:58;;;;;;;;;;;;;;;;;;6270215;22;19918;-88
2023/01/27 12:03:25;;;;;;;;;;;;;;;;;;6268276;22;20288;-88
2023/01/27 12:05:51;;;;;;;;;;;;;;;;;;6269847;22;19919;-89
2023/01/27 12:08:17;;;;;;;;;;;;;;;;;;6267153;22;20243;-88
2023/01/27 12:10:43;;;;;;;;;;;;;;;;;;6245478;22;19923;-89
2023/01/27 12:13:09;;;;;;;;;;;;;;;;;;6242457;22;20331;-89
2023/01/27 12:15:35;;;;;;;;;;;;;;;;;;6269949;22;19915;-88
2023/01/27 12:18:01;;;;;;;;;;;;;;;;;;6243541;22;19919;-88
2023/01/27 12:20:27;;;;;;;;;;;;;;;;;;6266483;22;19922;-88
2023/01/27 12:22:53;;;;;;;;;;;;;;;;;;6241730;22;19919;-88
2023/01/27 12:25:19;;;;;;;;;;;;;;;;;;6235849;22;19919;-89
2023/01/27 12:27:45;;;;;;;;;;;;;;;;;;6242990;22;19946;-89
2023/01/27 12:30:12;;;;;;;;;;;;;;;;;;6267074;22;19919;-89
2023/01/27 12:32:38;;;;;;;;;;;;;;;;;;6269703;22;19922;-89
2023/01/27 12:35:04;;;;;;;;;;;;;;;;;;6242251;22;19922;-89
2023/01/27 12:37:30;;;;;;;;;;;;;;;;;;6241658;22;19946;-88
2023/01/27 12:39:59;;;;;;;;;;;;;;;;;;6242837;22;19915;-89
2023/01/27 12:42:25;;;;;;;;;;;;;;;;;;6266583;22;19918;-89
2023/01/27 12:44:51;;;;;;;;;;;;;;;;;;6267305;22;20005;-89
2023/01/27 12:47:16;;;;;;;;;;;;;;;;;;6292845;22;19922;-89
2023/01/27 12:49:43;;;;;;;;;;;;;;;;;;6243131;22;19927;-89
2023/01/27 12:52:09;;;;;;;;;;;;;;;;;;6268586;22;20361;-89
2023/01/27 12:54:36;;;;;;;;;;;;;;;;;;6241343;22;19957;-89
2023/01/27 12:57:02;;;;;;;;;;;;;;;;;;6247244;22;20248;-89
2023/01/27 12:59:28;;;;;;;;;;;;;;;;;;6269456;22;20369;-89
2023/01/27 13:01:54;;;;;;;;;;;;;;;;;;6272002;22;19929;-89
2023/01/27 13:04:20;;;;;;;;;;;;;;;;;;6269150;22;19915;-89
2023/01/27 13:06:46;;;;;;;;;;;;;;;;;;6270807;22;19915;-89
2023/01/27 13:09:12;;;;;;;;;;;;;;;;;;6264675;22;19918;-89
2023/01/27 13:11:38;;;;;;;;;;;;;;;;;;6240076;22;20001;-89
2023/01/27 13:14:04;;;;;;;;;;;;;;;;;;6267893;22;20240;-88
2023/01/27 13:16:30;;;;;;;;;;;;;;;;;;6241884;22;19926;-89
2023/01/27 13:18:56;;;;;;;;;;;;;;;;;;6244715;22;19946;-89
2023/01/27 13:21:23;;;;;;;;;;;;;;;;;;6238709;22;19964;-88
2023/01/27 13:23:49;;;;;;;;;;;;;;;;;;6267630;22;19964;-89
2023/01/27 13:26:15;;;;;;;;;;;;;;;;;;6240736;22;20290;-89
2023/01/27 13:28:41;;;;;;;;;;;;;;;;;;6244778;22;19915;-88
2023/01/27 13:31:07;;;;;;;;;;;;;;;;;;6245400;22;19922;-89
2023/01/27 13:33:34;;;;;;;;;;;;;;;;;;6296321;22;19918;-89
2023/01/27 13:36:00;;;;;;;;;;;;;;;;;;6270139;22;19950;-88
2023/01/27 13:38:28;;;;;;;;;;;;;;;;;;6268385;22;19946;-87
2023/01/27 13:40:55;;;;;;;;;;;;;;;;;;6246064;22;20307;-87
2023/01/27 13:43:23;;;;;;;;;;;;;;;;;;6266487;22;19926;-87
2023/01/27 13:45:50;;;;;;;;;;;;;;;;;;6268892;22;19957;-88
2023/01/27 13:48:16;;;;;;;;;;;;;;;;;;6240197;22;19918;-88
2023/01/27 13:50:42;;;;;;;;;;;;;;;;;;6268533;22;19961;-87
2023/01/27 13:53:08;;;;;;;;;;;;;;;;;;6267103;22;20470;-88
2023/01/27 13:55:33;;;;;;;;;;;;;;;;;;6270400;22;19919;-88
2023/01/27 13:57:59;;;;;;;;;;;;;;;;;;6268739;22;19918;-89
2023/01/27 14:00:26;;;;;;;;;;;;;;;;;;6263729;22;19926;-87
2023/01/27 14:02:52;;;;;;;;;;;;;;;;;;6240788;22;19918;-88
2023/01/27 14:05:18;;;;;;;;;;;;;;;;;;6241555;22;19926;-88
2023/01/27 14:07:44;;;;;;;;;;;;;;;;;;6241809;22;19923;-89
2023/01/27 14:10:10;;;;;;;;;;;;;;;;;;6240548;22;19919;-89
2023/01/27 14:12:36;;;;;;;;;;;;;;;;;;6244787;22;19918;-88
2023/01/27 14:15:02;;;;;;;;;;;;;;;;;;6272297;22;20378;-88
2023/01/27 14:17:28;;;;;;;;;;;;;;;;;;6239307;22;19918;-89
2023/01/27 14:19:54;;;;;;;;;;;;;;;;;;6266318;22;20367;-88
2023/01/27 14:22:20;;;;;;;;;;;;;;;;;;6239349;22;19934;-88
2023/01/27 14:24:46;;;;;;;;;;;;;;;;;;6268549;22;19915;-89
2023/01/27 14:27:13;;;;;;;;;;;;;;;;;;6241848;22;20064;-88
2023/01/27 14:29:39;;;;;;;;;;;;;;;;;;6242862;22;19915;-87
2023/01/27 14:32:05;;;;;;;;;;;;;;;;;;6270365;22;20040;-87
2023/01/27 14:34:31;;;;;;;;;;;;;;;;;;6266498;22;19926;-87
2023/01/27 14:36:57;;;;;;;;;;;;;;;;;;6269879;22;19964;-87
2023/01/27 14:39:23;;;;;;;;;;;;;;;;;;6270459;22;20362;-86
2023/01/27 14:41:49;;;;;;;;;;;;;;;;;;6270118;22;19919;-86
2023/01/27 14:44:15;;;;;;;;;;;;;;;;;;6269082;22;20021;-87
2023/01/27 14:46:40;;;;;;;;;;;;;;;;;;6271416;22;19919;-87
2023/01/27 14:49:06;;;;;;;;;;;;;;;;;;6270970;22;20323;-88
2023/01/27 14:51:32;;;;;;;;;;;;;;;;;;6272380;22;20244;-88
2023/01/27 14:53:58;;;;;;;;;;;;;;;;;;6270102;22;20041;-86
2023/01/27 14:56:32;;;;;;;;;;;;;;;;;;6242602;22;19926;-88
2023/01/27 14:58:58;;;;;;;;;;;;;;;;;;6241465;22;19918;-88
2023/01/27 15:01:26;;;;;;;;;;;;;;;;;;6267340;22;19923;-88
2023/01/27 15:03:52;;;;;;;;;;;;;;;;;;6241154;22;20286;-89
2023/01/27 15:06:18;;;;;;;;;;;;;;;;;;6236475;22;19926;-87
2023/01/27 15:08:44;;;;;;;;;;;;;;;;;;6266056;22;19922;-88
2023/01/27 15:11:10;;;;;;;;;;;;;;;;;;6240221;22;19938;-88
2023/01/27 15:13:36;;;;;;;;;;;;;;;;;;6242217;22;19953;-87
2023/01/27 15:16:02;;;;;;;;;;;;;;;;;;6243767;22;19923;-87
2023/01/27 15:18:28;;;;;;;;;;;;;;;;;;6239065;22;19986;-87
2023/01/27 15:20:54;;;;;;;;;;;;;;;;;;6242035;22;19962;-87
2023/01/27 15:23:20;;;;;;;;;;;;;;;;;;6268229;22;20415;-88
2023/01/27 15:25:46;;;;;;;;;;;;;;;;;;6241677;22;19941;-88
2023/01/27 15:28:12;;;;;;;;;;;;;;;;;;6264292;22;19918;-88
2023/01/27 15:30:56;;;;;;;;;;;;;;;;;;6243694;22;19962;-88
2023/01/27 15:36:22;;;;;;;;;;;;;;;;;;6267472;22;19926;-89
2023/01/27 15:38:58;;;;;;;;;;;;;;;;;;;;;
2023/01/27 15:41:39;;;;;;;;;;;;;;;;;;6285728;22;19922;-87
2023/01/27 15:47:30;;;;;;;;;;;;;;;;;;;;;
2023/01/27 15:50:20;;;;;;;;;;;;;;;;;;6233082;22;20213;-88
2023/01/27 15:52:57;;;;;;;;;;;;;;;;;;6235437;22;19926;-88
2023/01/27 15:55:33;;;;;;;;;;;;;;;;;;;;;
2023/01/27 16:01:40;;;;;;;;;;;;;;;;;;6271280;22;19958;-88
2023/01/27 16:04:21;;;;;;;;;;;;;;;;;;;;;
2023/01/27 16:06:48;;;;;;;;;;;;;;;;;;6237499;22;20291;-88
2023/01/27 16:09:50;;;;;;;;;;;;;;;;;;6166103;22;20146;-88
2023/01/27 16:12:47;;;;;;;;;;;;;;;;;;;;;
2023/01/27 16:15:37;;;;;;;;;;;;;;;;;;6276240;22;19919;-87
2023/01/27 16:21:33;;;;;;;;;;;;;;;;;;6264684;22;19923;-88
2023/01/27 16:24:23;;;;;;;;;;;;;;;;;;6179260;23;19923;-88
2023/01/27 16:27:22;;;;;;;;;;;;;;;;;;6166894;23;19963;-87
2023/01/27 16:30:08;;;;;;;;;;;;;;;;;;;;;
2023/01/27 16:33:03;;;;;;;;;;;;;;;;;;6113222;23;19928;-89
2023/01/27 16:35:50;;;;;;;;;;;;;;;;;;6125570;23;20366;-88
2023/01/27 16:38:23;;;;;;;;;;;;;;;;;;6099849;23;19920;-88
2023/01/27 16:41:10;;;;;;;;;;;;;;;;;;6140228;23;20380;-88
2023/01/27 16:43:36;;;;;;;;;;;;;;;;;;6163261;23;19928;-88
2023/01/27 16:46:02;;;;;;;;;;;;;;;;;;6175238;23;19931;-88
2023/01/27 16:48:28;;;;;;;;;;;;;;;;;;6172348;23;19981;-88
2023/01/27 16:50:54;;;;;;;;;;;;;;;;;;6173412;23;19935;-88
2023/01/27 16:53:20;;;;;;;;;;;;;;;;;;6171550;23;19920;-88
2023/01/27 16:55:45;;;;;;;;;;;;;;;;;;6221746;22;19950;-88
2023/01/27 16:58:11;;;;;;;;;;;;;;;;;;6225311;22;19923;-88
2023/01/27 17:00:38;;;;;;;;;;;;;;;;;;6244251;22;19919;-88
2023/01/27 17:03:04;;;;;;;;;;;;;;;;;;6241804;22;20010;-88
2023/01/27 17:05:30;;;;;;;;;;;;;;;;;;6239711;22;19919;-88
2023/01/27 17:07:56;;;;;;;;;;;;;;;;;;6240960;22;19918;-89
2023/01/27 17:10:22;;;;;;;;;;;;;;;;;;6240081;22;19973;-88
2023/01/27 17:12:48;;;;;;;;;;;;;;;;;;6241489;22;20282;-88
2023/01/27 17:15:14;;;;;;;;;;;;;;;;;;6239889;22;19923;-88
2023/01/27 17:17:40;;;;;;;;;;;;;;;;;;6265873;22;20259;-88
2023/01/27 17:20:06;;;;;;;;;;;;;;;;;;6242304;22;19919;-88
2023/01/27 17:22:41;;;;;;;;;;;;;;;;;;6241591;22;19914;-88
2023/01/27 17:25:07;;;;;;;;;;;;;;;;;;6268901;22;19914;-88
2023/01/27 17:27:33;;;;;;;;;;;;;;;;;;6242608;22;19926;-88
2023/01/27 17:29:59;;;;;;;;;;;;;;;;;;6243949;22;19919;-88
2023/01/27 17:32:25;;;;;;;;;;;;;;;;;;6237140;22;19962;-88
2023/01/27 17:34:51;;;;;;;;;;;;;;;;;;6240090;22;19965;-88
2023/01/27 17:37:17;;;;;;;;;;;;;;;;;;6235618;22;19926;-88
2023/01/27 17:39:43;;;;;;;;;;;;;;;;;;6241361;22;19961;-88
2023/01/27 17:42:09;;;;;;;;;;;;;;;;;;6264488;22;20009;-88
2023/01/27 17:44:35;;;;;;;;;;;;;;;;;;6238254;22;19919;-88
2023/01/27 17:47:01;;;;;;;;;;;;;;;;;;6266057;22;20390;-88
2023/01/27 17:49:27;;;;;;;;;;;;;;;;;;6263883;22;19918;-88
2023/01/27 17:51:54;;;;;;;;;;;;;;;;;;6241679;22;20324;-88
2023/01/27 17:54:20;;;;;;;;;;;;;;;;;;6264048;22;19926;-88
2023/01/27 17:56:46;;;;;;;;;;;;;;;;;;6240643;22;19954;-89
2023/01/27 17:59:12;;;;;;;;;;;;;;;;;;6236175;22;19925;-88
2023/01/27 18:01:38;;;;;;;;;;;;;;;;;;6241785;22;19919;-89